I69

Clermont County Airport

Batavia, Ohio, USA
METAR KI69 230917Z AUTO 09005KT 10SM CLR 12/00 A3010 RMK AO2 T01210001
Observed Flight Rules
Apr-23 @ 09:17 UTC (18 minutes ago) Visual Flight Rules
Wind Visibility Clouds
90° at 5 knots 10 miles
  • Clear skies
Temperatures Readings
Current 12°C / 54°F
Dewpoint 0°C / 32°F
Humidity 44%
Altimeter 30.1" Hg
Pressure 1019 hPa
Elevation 255
METAR KI69 230917Z AUTO 09005KT 10SM CLR 12/00 A3010 RMK AO2 T01210001
Observed Flight Rules
Apr-23 @ 09:17 UTC
(18 minutes ago)
VFR
Wind Visibility
90° at 5 knots 10 miles
Clouds
  • Clear skies
Temperature Dewpoint
12°C / 54°F 0°C / 32°F
Humidity Altimeter Pressure
44% 30.1" Hg 1019 hPa